Terminal Aerodrome Forecast
Issued by NWS

Home | Current Version | Previous Version | Text Only | Print | Product List | Glossary On
Versions: 1 2 3 4 5 6 7 8 9 10 11 12 13 14 15
000
FTUS41 KPBZ 031120
TAFLBE
TAF
KLBE 031120Z 0312/0412 25005KT 6SM BR SCT250
     FM031400 27005KT P6SM SCT040
     FM040500 00000KT 3SM BR SKC
     FM040900 00000KT 1 1/2SM BR SKC=

USA.gov is the U.S. government's official web portal to all federal, state and local government web resources and services.